Time;durP1;ratioP1;P1;durP2;ratioP2;P2;SDS_P1;SDS_P2;PMS_P1;PMS_P2;Temp;Humidity;BMP_temperature;BMP_pressure;BME280_temperature;BME280_humidity;BME280_pressure;Samples;Min_cycle;Max_cycle;Signal;HPM_P1;HPM_P2
2023/05/01 00:00:51;;;;;;;22.00;11.40;;;;;;;10.52;100.00;99069.46;105800;1257;61229;-79
2023/05/01 00:03:18;;;;;;;20.10;10.70;;;;;;;9.97;100.00;99068.67;105500;1255;75706;-73
2023/05/01 00:05:46;;;;;;;16.30;10.10;;;;;;;9.77;100.00;99072.16;105806;1253;69578;-73
2023/05/01 00:08:13;;;;;;;10.50;9.40;;;;;;;10.05;100.00;99072.96;105901;1253;72879;-73
2023/05/01 00:10:41;;;;;;;14.50;10.10;;;;;;;10.16;100.00;99082.10;106027;1253;61922;-73
2023/05/01 00:13:08;;;;;;;20.30;12.70;;;;;;;10.37;100.00;99085.81;105799;1256;61454;-76
2023/05/01 00:15:40;;;;;;;12.90;10.30;;;;;;;10.09;100.00;99091.25;105894;1255;74537;-73
2023/05/01 00:18:07;;;;;;;16.30;11.90;;;;;;;10.22;100.00;99094.54;105873;1256;67842;-72
2023/05/01 00:20:34;;;;;;;23.80;12.40;;;;;;;10.07;100.00;99095.25;105800;1256;73484;-72
2023/05/01 00:23:01;;;;;;;12.00;8.80;;;;;;;10.05;100.00;99102.02;105940;1253;61920;-73
2023/05/01 00:25:30;;;;;;;11.80;9.30;;;;;;;9.77;100.00;99105.34;106106;1253;61338;-73
2023/05/01 00:27:58;;;;;;;14.50;9.10;;;;;;;9.88;100.00;99105.09;105900;1255;74706;-73
2023/05/01 00:30:26;;;;;;;13.80;9.40;;;;;;;9.92;100.00;99107.70;105884;1255;68925;-73
2023/05/01 00:32:53;;;;;;;16.90;9.30;;;;;;;10.02;100.00;99106.83;105767;1258;73268;-73
2023/05/01 00:35:20;;;;;;;10.90;8.30;;;;;;;10.30;100.00;99111.20;105795;1253;61351;-72
2023/05/01 00:37:47;;;;;;;11.50;9.10;;;;;;;10.33;100.00;99115.50;105740;1253;61331;-71
2023/05/01 00:40:14;;;;;;;13.80;8.40;;;;;;;10.47;100.00;99121.04;105748;1257;74782;-73
2023/05/01 00:42:42;;;;;;;14.90;8.20;;;;;;;10.70;100.00;99123.85;105768;1253;69289;-72
2023/05/01 00:45:09;;;;;;;9.00;7.70;;;;;;;10.96;100.00;99127.21;105647;1254;72940;-74
2023/05/01 00:47:37;;;;;;;9.80;8.60;;;;;;;11.13;100.00;99133.63;105926;1253;61482;-73
2023/05/01 00:50:05;;;;;;;15.50;9.30;;;;;;;9.86;100.00;99125.17;105909;1253;61930;-73
2023/05/01 00:52:32;;;;;;;22.40;12.10;;;;;;;10.27;100.00;99129.69;105589;1261;74702;-73
2023/05/01 00:54:59;;;;;;;26.10;15.10;;;;;;;10.45;100.00;99137.18;105497;1256;69814;-72
2023/05/01 00:57:26;;;;;;;24.70;15.50;;;;;;;10.48;100.00;99141.39;105679;1259;73405;-77
2023/05/01 00:59:52;;;;;;;30.60;17.80;;;;;;;10.54;100.00;99137.91;105942;1253;62219;-72
2023/05/01 01:02:19;;;;;;;28.90;17.40;;;;;;;10.44;100.00;99137.56;105885;1253;61269;-74
2023/05/01 01:04:46;;;;;;;31.50;18.80;;;;;;;10.54;100.00;99146.92;106047;1256;74987;-72
2023/05/01 01:07:32;;;;;;;17.80;12.70;;;;;;;10.72;100.00;99148.91;105695;1254;69839;-74
2023/05/01 01:10:30;;;;;;;19.20;14.30;;;;;;;10.87;100.00;99153.04;105962;1256;72973;-72
2023/05/01 01:13:03;;;;;;;;;;;;;;;10.83;100.00;99158.66;106085;1254;61310;-73
2023/05/01 01:15:33;;;;;;;20.00;13.00;;;;;;;11.00;100.00;99165.95;105937;1254;61310;-72
2023/05/01 01:18:33;;;;;;;17.90;11.40;;;;;;;10.88;100.00;99167.65;105690;1259;74761;-73
2023/05/01 01:21:22;;;;;;;28.50;23.70;;;;;;;10.87;100.00;99173.12;105746;1254;69365;-74
2023/05/01 01:23:49;;;;;;;18.80;9.20;;;;;;;10.79;99.62;99176.27;105982;1256;73412;-73
2023/05/01 01:26:49;;;;;;;32.70;21.00;;;;;;;10.78;99.88;99177.23;105881;1254;62323;-74
2023/05/01 01:29:20;;;;;;;28.70;18.00;;;;;;;10.60;99.58;99180.29;105321;1262;61241;-75
2023/05/01 01:31:56;;;;;;;15.60;9.10;;;;;;;10.52;98.37;99182.20;105317;1265;74839;-73
2023/05/01 01:34:34;;;;;;;22.50;12.90;;;;;;;10.55;95.95;99188.04;105235;1259;69349;-75
2023/05/01 01:37:20;;;;;;;13.80;8.50;;;;;;;10.56;93.80;99194.91;105259;1268;73481;-74
2023/05/01 01:39:54;;;;;;;14.20;9.40;;;;;;;10.32;94.41;99201.38;105290;1262;61579;-72
2023/05/01 01:42:25;;;;;;;8.80;7.40;;;;;;;10.09;96.57;99200.39;105187;1262;61570;-74
2023/05/01 01:44:55;;;;;;;9.40;6.90;;;;;;;9.96;96.34;99202.45;105299;1263;75013;-72
2023/05/01 01:47:27;;;;;;;11.60;8.30;;;;;;;10.07;94.28;99198.93;105176;1260;68804;-73
2023/05/01 01:49:54;;;;;;;10.40;6.70;;;;;;;10.04;92.22;99208.35;105316;1260;72932;-72
2023/05/01 01:52:21;;;;;;;13.30;5.70;;;;;;;9.82;92.48;99208.57;105255;1260;62199;-74
2023/05/01 01:54:57;;;;;;;9.00;6.20;;;;;;;9.77;91.60;99208.91;105209;1260;61286;-75
2023/05/01 01:57:25;;;;;;;10.60;6.40;;;;;;;9.86;88.61;99210.27;104799;1273;75327;-75
2023/05/01 01:59:52;;;;;;;6.50;5.80;;;;;;;10.05;86.05;99215.70;105130;1260;68774;-75
2023/05/01 02:02:19;;;;;;;12.30;5.80;;;;;;;10.18;83.26;99220.52;105362;1266;74008;-74
2023/05/01 02:04:47;;;;;;;12.70;5.90;;;;;;;10.15;82.98;99225.95;105118;1260;61262;-71
2023/05/01 02:07:14;;;;;;;8.60;6.00;;;;;;;9.96;83.97;99230.92;105371;1254;61582;-73
2023/05/01 02:09:41;;;;;;;7.30;6.00;;;;;;;9.93;84.18;99237.92;105559;1259;74402;-73
2023/05/01 02:12:08;;;;;;;6.90;6.10;;;;;;;9.86;84.50;99239.02;105663;1253;70930;-72
2023/05/01 02:14:36;;;;;;;6.50;5.80;;;;;;;9.80;84.20;99240.98;105623;1260;73279;-76
2023/05/01 02:17:03;;;;;;;8.40;6.00;;;;;;;9.43;87.02;99243.23;105639;1254;61375;-76
2023/05/01 02:19:31;;;;;;;8.30;6.60;;;;;;;9.24;88.08;99243.59;105884;1252;61432;-73
2023/05/01 02:21:58;;;;;;;7.10;5.90;;;;;;;9.13;89.00;99245.09;105668;1258;75874;-73
2023/05/01 02:24:26;;;;;;;6.20;5.60;;;;;;;9.00;90.31;99249.75;105612;1258;69696;-73
2023/05/01 02:27:02;;;;;;;11.20;6.50;;;;;;;9.19;88.49;99254.20;105652;1260;73309;-72
2023/05/01 02:29:30;;;;;;;10.70;5.40;;;;;;;9.26;86.62;99253.85;105633;1254;62152;-72
2023/05/01 02:31:57;;;;;;;7.10;5.50;;;;;;;9.20;86.87;99257.22;105833;1254;61298;-71
2023/05/01 02:34:24;;;;;;;5.90;5.40;;;;;;;9.17;86.80;99259.73;105884;1256;75590;-73
2023/05/01 02:36:51;;;;;;;6.20;5.60;;;;;;;9.23;85.81;99260.08;105888;1255;69288;-72
2023/05/01 02:39:18;;;;;;;8.20;7.00;;;;;;;9.29;85.25;99268.23;105664;1254;73764;-74
2023/05/01 02:41:45;;;;;;;8.40;5.70;;;;;;;9.36;84.52;99270.98;105616;1253;62335;-75
2023/05/01 02:44:12;;;;;;;10.20;6.20;;;;;;;9.20;85.26;99273.33;105804;1255;61422;-72
2023/05/01 02:46:38;;;;;;;6.10;5.50;;;;;;;9.26;84.84;99278.23;105685;1259;75729;-71
2023/05/01 02:49:05;;;;;;;16.90;10.20;;;;;;;9.10;85.63;99279.23;105598;1257;68789;-76
2023/05/01 02:51:32;;;;;;;27.40;14.80;;;;;;;9.05;86.59;99277.87;106012;1257;73405;-72
2023/05/01 02:53:59;;;;;;;26.20;14.60;;;;;;;9.02;86.51;99279.81;105781;1254;61611;-73
2023/05/01 02:56:26;;;;;;;26.40;16.10;;;;;;;8.88;88.40;99284.85;107384;1253;61326;-74
2023/05/01 02:58:54;;;;;;;14.20;8.90;;;;;;;9.07;86.86;99288.02;106802;1256;74769;-76
2023/05/01 03:01:21;;;;;;;9.30;6.60;;;;;;;9.08;86.84;99294.30;105971;1253;68757;-72
2023/05/01 03:03:48;;;;;;;7.50;6.30;;;;;;;9.12;86.65;99298.89;105870;1253;73358;-73
2023/05/01 03:06:15;;;;;;;6.40;5.80;;;;;;;9.30;85.56;99302.09;105875;1257;61492;-72
2023/05/01 03:08:43;;;;;;;6.90;6.20;;;;;;;9.49;84.42;99307.21;105925;1255;61290;-73
2023/05/01 03:11:10;;;;;;;11.90;5.70;;;;;;;9.64;83.48;99318.10;105944;1256;74722;-74
2023/05/01 03:13:36;;;;;;;6.70;6.00;;;;;;;9.97;80.93;99316.20;105863;1257;68687;-73
2023/05/01 03:16:04;;;;;;;5.70;5.10;;;;;;;10.19;79.37;99322.37;105848;1253;72570;-72
2023/05/01 03:18:31;;;;;;;6.70;5.20;;;;;;;10.38;78.16;99328.13;105851;1257;62618;-74
2023/05/01 03:20:58;;;;;;;8.10;5.10;;;;;;;10.24;78.74;99328.91;105824;1255;61254;-75
2023/05/01 03:23:26;;;;;;;5.80;5.30;;;;;;;10.42;77.82;99328.05;105961;1256;74764;-74
2023/05/01 03:25:53;;;;;;;;;;;;;;;10.66;76.74;99327.60;105961;1255;69694;-71
2023/05/01 03:28:22;;;;;;;7.90;4.70;;;;;;;10.81;75.72;99327.05;105966;1257;73751;-74
2023/05/01 03:30:51;;;;;;;8.10;5.40;;;;;;;10.77;76.39;99331.91;105913;1253;62280;-76
2023/05/01 03:33:18;;;;;;;8.90;5.60;;;;;;;10.81;76.72;99337.15;105805;1257;61333;-74
2023/05/01 03:35:44;;;;;;;9.50;4.90;;;;;;;11.00;76.41;99333.80;105853;1257;74408;-75
2023/05/01 03:38:12;;;;;;;13.00;5.80;;;;;;;11.47;73.78;99344.98;105687;1260;68663;-75
2023/05/01 03:41:03;;;;;;;6.40;5.50;;;;;;;11.67;72.52;99348.20;105808;1256;73845;-75
2023/05/01 03:43:57;;;;;;;6.60;5.00;;;;;;;11.60;73.51;99348.98;105967;1253;62258;-76
2023/05/01 03:46:30;;;;;;;6.80;5.60;;;;;;;11.73;73.60;99352.52;105965;1254;61286;-75
2023/05/01 03:48:57;;;;;;;8.70;5.20;;;;;;;11.82;73.53;99353.84;105908;1258;75185;-77
2023/05/01 03:51:24;;;;;;;8.40;5.50;;;;;;;11.90;73.63;99355.91;105654;1261;66612;-77
2023/05/01 03:53:55;;;;;;;8.70;5.80;;;;;;;11.78;74.70;99358.30;105776;1259;72888;-74
2023/05/01 03:56:24;;;;;;;7.40;5.40;;;;;;;11.61;76.97;99365.94;105712;1253;61970;-73
2023/05/01 03:58:52;;;;;;;7.90;5.30;;;;;;;11.84;76.58;99366.23;105932;1254;61339;-70
2023/05/01 04:01:19;;;;;;;11.40;5.60;;;;;;;12.17;73.85;99367.18;105804;1259;75275;-76
2023/05/01 04:03:47;;;;;;;6.90;5.30;;;;;;;12.19;74.02;99375.20;105811;1253;69210;-74
2023/05/01 04:06:16;;;;;;;9.80;5.30;;;;;;;12.19;73.95;99372.61;105721;1258;73728;-74
2023/05/01 04:08:42;;;;;;;;;;;;;;;12.46;73.08;99380.15;105793;1254;61339;-71
2023/05/01 04:11:10;;;;;;;8.40;6.00;;;;;;;12.62;70.57;99381.70;105830;1253;61362;-75
2023/05/01 04:13:37;;;;;;;10.00;7.60;;;;;;;12.45;71.78;99382.25;105616;1258;74968;-74
2023/05/01 04:16:05;;;;;;;10.10;6.70;;;;;;;12.89;70.22;99387.30;105701;1258;69170;-77
2023/05/01 04:18:33;;;;;;;14.80;8.70;;;;;;;12.91;69.41;99386.06;105704;1258;72343;-75
2023/05/01 04:20:59;;;;;;;17.00;8.80;;;;;;;12.86;70.52;99387.69;105752;1254;61254;-74
2023/05/01 04:23:26;;;;;;;10.20;7.00;;;;;;;13.35;67.90;99392.31;105824;1256;61796;-74
2023/05/01 04:25:56;;;;;;;7.10;6.10;;;;;;;13.62;65.07;99393.21;105874;1256;75272;-75
2023/05/01 04:28:23;;;;;;;10.00;6.30;;;;;;;13.42;67.02;99402.15;105988;1256;69823;-76
2023/05/01 04:30:50;;;;;;;10.00;5.40;;;;;;;13.95;63.27;99402.52;106138;1256;73294;-74
2023/05/01 04:33:17;;;;;;;11.10;6.10;;;;;;;14.15;61.47;99401.05;106041;1254;62297;-75
2023/05/01 04:35:44;;;;;;;10.40;6.40;;;;;;;14.50;60.30;99410.08;105928;1256;61569;-74
2023/05/01 04:38:11;;;;;;;10.10;6.10;;;;;;;14.32;60.78;99406.48;105852;1260;74847;-76
2023/05/01 04:40:38;;;;;;;15.20;7.40;;;;;;;14.83;59.85;99416.18;105839;1259;66629;-75
2023/05/01 04:43:05;;;;;;;7.80;6.10;;;;;;;14.93;57.91;99420.67;105930;1257;71457;-75
2023/05/01 04:45:32;;;;;;;6.90;5.40;;;;;;;14.59;58.96;99416.11;105729;1257;62813;-76
2023/05/01 04:47:59;;;;;;;10.30;7.30;;;;;;;14.32;59.88;99417.61;105761;1254;61246;-76
2023/05/01 04:50:26;;;;;;;9.30;5.90;;;;;;;14.37;60.08;99416.49;105790;1256;74667;-76
2023/05/01 04:52:53;;;;;;;6.70;5.30;;;;;;;14.47;59.11;99414.70;105979;1254;70444;-77
2023/05/01 04:55:20;;;;;;;7.40;5.40;;;;;;;14.34;59.42;99411.02;105894;1257;72932;-75
2023/05/01 04:58:16;;;;;;;9.60;5.10;;;;;;;14.43;59.19;99417.64;105645;1259;61234;-78
2023/05/01 05:00:45;;;;;;;10.70;6.30;;;;;;;14.61;58.83;99425.02;105915;1253;61221;-76
2023/05/01 05:03:19;;;;;;;6.80;5.90;;;;;;;14.92;56.39;99429.28;105754;1258;75690;-77
2023/05/01 05:05:46;;;;;;;10.50;5.60;;;;;;;14.83;56.57;99426.50;105808;1254;68684;-76
2023/05/01 05:08:14;;;;;;;7.70;5.20;;;;;;;14.97;56.42;99434.63;105765;1255;72466;-72
2023/05/01 05:10:46;;;;;;;7.40;5.70;;;;;;;15.18;55.38;99446.09;105754;1259;61342;-76
2023/05/01 05:13:38;;;;;;;13.10;5.30;;;;;;;15.36;53.12;99446.70;105727;1258;61278;-79
2023/05/01 05:16:10;;;;;;;7.10;5.30;;;;;;;15.53;52.00;99445.33;105752;1260;75056;-76
2023/05/01 05:18:37;;;;;;;6.10;5.20;;;;;;;15.66;51.67;99447.29;105833;1259;68588;-77
2023/05/01 05:21:05;;;;;;;7.70;5.00;;;;;;;15.77;50.82;99455.50;105748;1261;72393;-76
2023/05/01 05:23:32;;;;;;;7.80;4.60;;;;;;;15.63;50.31;99454.73;105779;1254;61280;-75
2023/05/01 05:26:00;;;;;;;6.10;4.70;;;;;;;16.07;49.96;99461.64;105788;1255;61421;-75
2023/05/01 05:28:27;;;;;;;6.80;5.00;;;;;;;15.99;49.03;99463.92;105768;1258;75337;-77
2023/05/01 05:30:55;;;;;;;6.90;5.20;;;;;;;16.42;48.84;99466.29;105854;1257;68885;-75
2023/05/01 05:33:23;;;;;;;6.90;4.00;;;;;;;16.71;47.87;99472.45;106056;1266;71670;-74
2023/05/01 05:35:51;;;;;;;11.30;5.20;;;;;;;16.69;46.90;99472.75;106011;1256;61434;-77
2023/05/01 05:38:19;;;;;;;6.90;4.60;;;;;;;17.02;45.40;99479.31;106085;1252;61328;-77
2023/05/01 05:40:49;;;;;;;9.10;5.30;;;;;;;16.70;45.26;99476.19;105797;1261;74289;-76
2023/05/01 05:43:17;;;;;;;7.40;3.90;;;;;;;16.50;46.51;99488.05;106014;1256;68800;-76
2023/05/01 05:45:44;;;;;;;15.90;9.30;;;;;;;17.15;45.19;99490.95;105838;1260;73594;-75
2023/05/01 05:48:11;;;;;;;6.40;4.70;;;;;;;17.56;44.37;99495.36;105875;1259;61302;-75
2023/05/01 05:50:40;;;;;;;5.30;4.10;;;;;;;17.24;43.40;99494.98;105920;1254;61266;-77
2023/05/01 05:53:07;;;;;;;4.80;3.90;;;;;;;16.81;44.60;99494.45;105991;1257;75194;-74
2023/05/01 05:55:35;;;;;;;5.60;3.90;;;;;;;16.85;44.84;99491.73;105868;1256;69774;-74
2023/05/01 05:58:03;;;;;;;8.70;4.90;;;;;;;16.99;44.34;99495.41;105974;1256;72631;-75
2023/05/01 06:00:30;;;;;;;6.60;4.00;;;;;;;17.23;44.27;99498.58;107341;1256;61149;-76
2023/05/01 06:03:01;;;;;;;10.40;4.70;;;;;;;17.73;43.45;99500.29;107026;1257;61400;-76
2023/05/01 06:05:29;;;;;;;5.80;3.90;;;;;;;18.02;42.03;99500.37;105950;1258;74642;-77
2023/05/01 06:07:56;;;;;;;7.20;4.20;;;;;;;17.72;41.02;99504.16;105848;1260;68006;-75
2023/05/01 06:10:23;;;;;;;11.70;4.30;;;;;;;18.20;40.83;99509.80;105960;1255;72580;-75
2023/05/01 06:12:50;;;;;;;5.30;3.40;;;;;;;18.19;40.21;99510.08;106122;1256;61386;-76
2023/05/01 06:15:38;;;;;;;7.90;3.50;;;;;;;17.83;41.00;99511.27;106060;1254;61331;-75
2023/05/01 06:18:05;;;;;;;5.80;4.00;;;;;;;18.14;41.16;99510.92;106040;1257;73658;-74
2023/05/01 06:20:32;;;;;;;6.60;3.80;;;;;;;17.41;41.43;99511.77;105823;1255;68365;-75
2023/05/01 06:22:59;;;;;;;8.30;3.80;;;;;;;17.51;41.34;99514.70;105910;1254;72607;-76
2023/05/01 06:25:32;;;;;;;4.60;3.20;;;;;;;17.80;40.77;99513.09;106098;1254;62371;-76
2023/05/01 06:27:58;;;;;;;8.10;4.20;;;;;;;17.57;39.48;99519.98;105855;1260;61110;-76
2023/05/01 06:30:25;;;;;;;10.30;4.30;;;;;;;17.95;39.30;99525.70;106126;1254;74548;-75
2023/05/01 06:32:52;;;;;;;6.80;3.90;;;;;;;18.18;38.58;99526.63;105852;1257;68879;-74
2023/05/01 06:35:19;;;;;;;5.70;3.60;;;;;;;18.12;39.24;99529.85;106108;1254;72448;-75
2023/05/01 06:37:46;;;;;;;3.70;3.00;;;;;;;17.99;38.56;99531.60;106098;1256;62248;-76
2023/05/01 06:40:13;;;;;;;3.50;2.90;;;;;;;18.35;37.68;99537.52;105866;1252;61274;-77
2023/05/01 06:42:41;;;;;;;8.80;3.30;;;;;;;18.16;37.30;99542.39;105868;1254;73693;-76
2023/05/01 06:45:09;;;;;;;14.40;3.20;;;;;;;18.15;36.74;99538.86;106072;1257;70004;-76
2023/05/01 06:47:36;;;;;;;5.30;2.40;;;;;;;18.36;36.53;99544.73;105995;1257;73582;-76
2023/05/01 06:50:04;;;;;;;4.60;2.50;;;;;;;18.87;36.06;99549.11;106008;1254;61712;-76
2023/05/01 06:52:33;;;;;;;3.20;2.70;;;;;;;18.28;34.33;99546.52;106009;1253;61311;-73
2023/05/01 06:55:00;;;;;;;6.70;2.50;;;;;;;17.87;34.18;99549.09;105877;1256;74589;-71
2023/05/01 06:57:27;;;;;;;5.40;2.80;;;;;;;17.88;33.18;99551.77;106039;1254;68768;-76
2023/05/01 06:59:55;;;;;;;5.30;2.20;;;;;;;17.91;32.54;99552.89;106004;1257;71541;-77
2023/05/01 07:02:23;;;;;;;4.00;2.00;;;;;;;18.49;32.08;99565.46;105914;1255;61241;-76
2023/05/01 07:04:50;;;;;;;5.10;2.80;;;;;;;18.76;31.46;99567.22;106106;1257;61238;-73
2023/05/01 07:07:16;;;;;;;3.90;1.90;;;;;;;18.75;30.88;99570.01;106079;1252;75474;-76
2023/05/01 07:09:43;;;;;;;6.80;1.70;;;;;;;19.01;30.72;99567.60;106230;1256;68246;-77
2023/05/01 07:12:11;;;;;;;9.00;3.00;;;;;;;18.53;30.82;99563.27;106305;1254;73353;-75
2023/05/01 07:14:39;;;;;;;7.20;2.70;;;;;;;19.06;30.66;99572.83;106140;1254;61309;-76
2023/05/01 07:17:07;;;;;;;6.30;2.10;;;;;;;19.46;30.04;99577.52;106082;1255;61327;-73
2023/05/01 07:19:35;;;;;;;4.40;2.90;;;;;;;19.63;28.92;99579.36;106115;1256;75528;-75
2023/05/01 07:22:03;;;;;;;11.20;2.70;;;;;;;19.75;28.92;99581.95;105999;1257;67557;-74
2023/05/01 07:24:30;;;;;;;4.50;1.90;;;;;;;19.33;28.23;99574.13;106023;1257;72512;-75
2023/05/01 07:26:57;;;;;;;2.20;2.00;;;;;;;18.40;28.53;99581.33;106065;1253;62235;-78
2023/05/01 07:29:24;;;;;;;3.20;2.10;;;;;;;17.87;29.19;99572.73;106071;1254;61227;-78
2023/05/01 07:31:50;;;;;;;14.00;4.10;;;;;;;18.05;29.86;99577.95;106060;1257;73322;-78
2023/05/01 07:34:18;;;;;;;6.40;3.10;;;;;;;18.44;30.20;99581.08;106072;1258;68656;-76
2023/05/01 07:36:45;;;;;;;2.60;2.00;;;;;;;19.22;30.04;99589.35;106084;1257;70980;-74
2023/05/01 07:39:13;;;;;;;3.40;2.30;;;;;;;18.92;28.83;99581.79;106077;1255;61275;-77
2023/05/01 07:41:40;;;;;;;6.20;2.70;;;;;;;19.25;29.16;99589.53;106113;1257;61244;-78
2023/05/01 07:44:07;;;;;;;10.20;2.30;;;;;;;19.68;28.21;99584.08;105978;1256;75760;-78
2023/05/01 07:46:35;;;;;;;5.10;1.90;;;;;;;19.16;28.31;99586.08;106124;1252;69146;-79
2023/05/01 07:49:03;;;;;;;2.40;1.60;;;;;;;19.14;29.03;99588.34;106104;1256;71667;-78
2023/05/01 07:51:30;;;;;;;12.90;1.40;;;;;;;18.86;28.24;99587.10;105811;1254;61288;-75
2023/05/01 07:53:57;;;;;;;10.10;4.80;;;;;;;18.63;28.68;99585.00;106072;1253;61226;-77
2023/05/01 07:56:24;;;;;;;2.80;2.30;;;;;;;18.94;28.74;99592.47;106103;1256;74804;-77
2023/05/01 07:58:51;;;;;;;3.40;2.40;;;;;;;18.82;29.17;99588.55;106048;1257;67601;-77
2023/05/01 08:01:18;;;;;;;7.50;2.40;;;;;;;19.32;28.98;99594.60;106023;1257;73062;-78
2023/05/01 08:03:45;;;;;;;4.20;2.50;;;;;;;19.15;28.22;99602.20;105859;1256;61438;-74
2023/05/01 08:06:14;;;;;;;7.00;2.60;;;;;;;18.89;28.20;99598.98;105799;1254;61231;-77
2023/05/01 08:08:41;;;;;;;3.70;2.70;;;;;;;19.18;28.38;99604.23;106094;1256;75543;-75
2023/05/01 08:11:08;;;;;;;2.10;1.90;;;;;;;19.40;27.90;99603.70;105960;1255;68797;-76
2023/05/01 08:13:35;;;;;;;2.30;1.70;;;;;;;18.95;27.55;99611.59;106110;1256;72766;-82
2023/05/01 08:16:02;;;;;;;3.50;1.70;;;;;;;18.66;27.52;99608.81;105872;1254;61324;-74
2023/05/01 08:18:29;;;;;;;4.10;1.90;;;;;;;19.05;27.78;99619.16;106119;1254;62262;-72
2023/05/01 08:20:56;;;;;;;5.00;2.00;;;;;;;19.36;26.99;99617.04;106091;1254;74797;-76
2023/05/01 08:23:24;;;;;;;2.70;2.00;;;;;;;19.07;27.07;99619.58;105853;1254;68920;-73
2023/05/01 08:25:51;;;;;;;3.30;2.30;;;;;;;18.61;28.12;99618.42;105871;1254;72727;-75
2023/05/01 08:28:21;;;;;;;5.60;2.40;;;;;;;19.26;27.71;99616.84;106121;1254;61155;-72
2023/05/01 08:30:48;;;;;;;3.40;2.50;;;;;;;19.58;27.79;99617.17;106161;1254;61285;-79
2023/05/01 08:33:15;;;;;;;6.30;2.60;;;;;;;19.47;28.00;99618.29;106091;1253;75706;-79
2023/05/01 08:35:42;;;;;;;3.80;2.00;;;;;;;18.02;29.47;99612.03;106070;1257;69130;-79
2023/05/01 08:38:12;;;;;;;3.30;1.50;;;;;;;16.03;32.47;99601.94;105997;1257;71781;-75
2023/05/01 08:40:41;;;;;;;6.00;2.10;;;;;;;16.37;31.35;99606.96;105852;1254;61362;-78
2023/05/01 08:43:08;;;;;;;3.10;2.40;;;;;;;16.72;31.10;99598.44;105816;1254;61224;-76
2023/05/01 08:45:36;;;;;;;2.40;2.00;;;;;;;15.76;33.43;99605.96;105949;1256;74911;-76
2023/05/01 08:48:06;;;;;;;3.60;1.90;;;;;;;15.98;33.20;99604.81;106020;1257;69442;-74
2023/05/01 08:50:35;;;;;;;5.10;3.20;;;;;;;16.50;32.89;99613.93;105874;1257;72684;-74
2023/05/01 08:53:03;;;;;;;2.70;2.30;;;;;;;17.38;30.85;99616.48;105833;1257;61240;-72
2023/05/01 08:55:31;;;;;;;5.10;2.20;;;;;;;18.75;28.96;99623.47;105966;1254;61149;-80
2023/05/01 08:57:58;;;;;;;6.90;6.00;;;;;;;16.31;31.35;99615.69;105919;1257;74557;-76
2023/05/01 09:00:26;;;;;;;9.10;2.90;;;;;;;16.29;32.12;99611.64;106013;1254;68932;-74
2023/05/01 09:02:53;;;;;;;2.70;2.10;;;;;;;16.04;33.23;99606.63;106099;1254;133459;-76
2023/05/01 09:05:20;;;;;;;4.60;2.80;;;;;;;15.61;33.31;99612.37;105846;1254;62430;-77
2023/05/01 09:07:47;;;;;;;6.00;2.80;;;;;;;17.70;31.78;99619.66;107199;1253;61288;-77
2023/05/01 09:10:17;;;;;;;3.50;2.40;;;;;;;17.44;31.59;99619.91;108297;1253;72779;-78
2023/05/01 09:12:51;;;;;;;3.00;2.20;;;;;;;16.49;32.79;99617.73;106546;1254;68936;-78
2023/05/01 09:15:18;;;;;;;4.70;2.50;;;;;;;18.61;30.88;99628.02;106105;1254;72637;-78
2023/05/01 09:17:45;;;;;;;10.40;2.50;;;;;;;19.10;28.66;99634.03;105915;1254;61345;-80
2023/05/01 09:20:12;;;;;;;3.80;1.70;;;;;;;16.71;31.35;99625.89;106106;1257;61276;-80
2023/05/01 09:22:40;;;;;;;2.70;2.00;;;;;;;16.82;32.01;99623.42;105893;1259;75838;-76
2023/05/01 09:25:09;;;;;;;2.80;1.80;;;;;;;17.71;29.84;99626.11;105911;1256;69643;-77
2023/05/01 09:27:36;;;;;;;4.70;1.60;;;;;;;17.68;30.04;99626.70;105870;1257;72608;-76
2023/05/01 09:30:05;;;;;;;2.40;1.70;;;;;;;18.11;29.85;99625.42;106019;1256;61340;-75
2023/05/01 09:32:32;;;;;;;5.70;1.70;;;;;;;18.47;29.20;99629.78;106274;1254;61218;-74
2023/05/01 09:35:10;;;;;;;1.60;1.40;;;;;;;18.40;28.96;99630.89;106098;1257;75308;-72
2023/05/01 09:37:37;;;;;;;6.30;3.60;;;;;;;18.16;28.91;99626.46;106214;1256;68141;-76
2023/05/01 09:40:11;;;;;;;2.00;1.80;;;;;;;18.42;28.36;99621.00;105925;1255;71626;-77
2023/05/01 09:42:39;;;;;;;3.70;1.80;;;;;;;17.81;28.33;99625.07;105857;1253;62315;-76
2023/05/01 09:45:12;;;;;;;2.40;1.40;;;;;;;17.91;28.80;99624.80;105909;1254;61318;-80
2023/05/01 09:47:43;;;;;;;2.10;1.60;;;;;;;18.36;28.63;99622.34;106179;1257;75740;-77
2023/05/01 09:50:33;;;;;;;5.50;1.90;;;;;;;18.64;28.59;99621.74;105392;1255;1002983;-77
2023/05/01 09:53:00;;;;;;;5.40;2.70;;;;;;;18.34;27.62;99631.70;105821;1257;72463;-75
2023/05/01 09:55:27;;;;;;;10.70;7.90;;;;;;;18.12;28.60;99629.22;106253;1253;62318;-77
2023/05/01 09:57:54;;;;;;;19.90;12.90;;;;;;;17.81;28.49;99630.01;106152;1256;61247;-78
2023/05/01 10:00:21;;;;;;;4.20;2.20;;;;;;;18.06;28.78;99626.30;106173;1253;75602;-76
2023/05/01 10:02:48;;;;;;;5.30;1.30;;;;;;;18.13;28.02;99635.07;106172;1256;69168;-78
2023/05/01 10:05:15;;;;;;;3.90;2.30;;;;;;;17.72;27.56;99629.45;105892;1257;73491;-76
2023/05/01 10:07:58;;;;;;;1.90;1.70;;;;;;;17.84;27.48;99632.73;106133;1254;61371;-75
2023/05/01 10:10:25;;;;;;;3.50;1.50;;;;;;;18.04;27.68;99628.66;106159;1256;61699;-79
2023/05/01 10:12:52;;;;;;;3.80;1.90;;;;;;;18.05;27.60;99625.77;106121;1256;75831;-77
2023/05/01 10:15:19;;;;;;;1.30;1.20;;;;;;;18.21;27.63;99631.38;106140;1254;69904;-77
2023/05/01 10:17:52;;;;;;;4.40;1.50;;;;;;;18.09;26.65;99631.24;106120;1254;72663;-77
2023/05/01 10:20:19;;;;;;;1.60;1.30;;;;;;;17.96;27.10;99628.55;105972;1253;61276;-77
2023/05/01 10:22:47;;;;;;;4.80;3.30;;;;;;;17.70;28.53;99623.80;106305;1253;61369;-77
2023/05/01 10:25:15;;;;;;;2.30;1.40;;;;;;;18.47;27.60;99630.30;106540;1257;74977;-76
2023/05/01 10:27:42;;;;;;;4.50;1.90;;;;;;;18.88;27.83;99632.31;106058;1255;69505;-74
2023/05/01 10:30:09;;;;;;;5.00;1.80;;;;;;;18.68;26.26;99637.59;106286;1254;70517;-75
2023/05/01 10:32:38;;;;;;;2.30;1.60;;;;;;;18.47;26.63;99635.40;106187;1253;62333;-77
2023/05/01 10:35:10;;;;;;;8.40;1.50;;;;;;;18.64;26.65;99634.17;106005;1254;61346;-77
2023/05/01 10:37:46;;;;;;;8.10;4.60;;;;;;;18.55;26.40;99633.79;106111;1256;74728;-78
2023/05/01 10:40:43;;;;;;;6.70;2.30;;;;;;;18.52;26.43;99637.70;106168;1253;69791;-75
2023/05/01 10:43:29;;;;;;;11.10;3.60;;;;;;;18.62;26.55;99643.95;105390;1264;73911;-77
2023/05/01 10:46:20;;;;;;;4.30;1.70;;;;;;;18.68;26.31;99641.38;105341;1266;61336;-76
2023/05/01 10:48:50;;;;;;;4.80;4.00;;;;;;;18.58;26.52;99635.94;105343;1264;61275;-77
2023/05/01 10:51:24;;;;;;;2.70;1.70;;;;;;;17.47;27.11;99634.60;105349;1262;74669;-76
2023/05/01 10:54:12;;;;;;;2.40;1.50;;;;;;;17.72;27.46;99633.84;105313;1267;67966;-78
2023/05/01 10:56:41;;;;;;;4.70;1.40;;;;;;;18.66;26.65;99637.14;105302;1260;71899;-77
2023/05/01 10:59:09;;;;;;;4.50;1.80;;;;;;;18.83;26.69;99648.34;105287;1260;61369;-75
2023/05/01 11:01:50;;;;;;;6.90;1.50;;;;;;;18.85;25.21;99647.71;105378;1264;61915;-76
2023/05/01 11:04:18;;;;;;;5.20;1.50;;;;;;;18.55;26.01;99642.66;105355;1266;75270;-76
2023/05/01 11:07:04;;;;;;;4.60;2.10;;;;;;;18.88;25.92;99646.49;105378;1263;69075;-72
2023/05/01 11:09:35;;;;;;;3.10;1.30;;;;;;;17.62;26.56;99640.77;105123;1264;73755;-76
2023/05/01 11:12:02;;;;;;;9.70;2.40;;;;;;;17.76;26.88;99635.70;105324;1262;61604;-76
2023/05/01 11:14:51;;;;;;;1.80;1.50;;;;;;;17.66;26.42;99640.77;105283;1264;61272;-78
2023/05/01 11:17:37;;;;;;;2.80;1.40;;;;;;;17.61;26.39;99643.77;105365;1261;75739;-76
2023/05/01 11:20:04;;;;;;;2.90;1.60;;;;;;;18.12;25.89;99646.88;105709;1257;67599;-77
2023/05/01 11:22:32;;;;;;;;;;;;;;;18.23;25.60;99645.36;106089;1256;73434;-77
2023/05/01 11:25:05;;;;;;;2.50;1.50;;;;;;;18.33;26.33;99644.56;106057;1255;61343;-76
2023/05/01 11:27:32;;;;;;;1.80;1.60;;;;;;;18.39;25.85;99648.30;106028;1255;61288;-77
2023/05/01 11:29:59;;;;;;;3.60;1.60;;;;;;;18.36;25.72;99649.55;106103;1252;75713;-75
2023/05/01 11:32:26;;;;;;;7.20;2.50;;;;;;;18.32;25.91;99651.31;106088;1252;68611;-77